Time;durP1;ratioP1;P1;durP2;ratioP2;P2;SDS_P1;SDS_P2;PMS_P1;PMS_P2;Temp;Humidity;BMP_temperature;BMP_pressure;BME280_temperature;BME280_humidity;BME280_pressure;Samples;Min_cycle;Max_cycle;Signal;HPM_P1;HPM_P2
2021/10/26 00:01:12;;;;;;;9.50;7.85;;;;;;;5.34;68.64;95427.83;827869;71;29406;-80
2021/10/26 00:16:11;;;;;;;8.65;7.33;;;;;;;5.17;69.55;95417.37;827801;71;30853;-76
2021/10/26 00:31:15;;;;;;;9.60;8.23;;;;;;;5.41;68.69;95410.77;827524;71;32691;-77
2021/10/26 00:46:14;;;;;;;11.78;8.70;;;;;;;5.73;67.99;95403.28;833494;71;31343;-78
2021/10/26 01:01:18;;;;;;;10.88;9.75;;;;;;;5.96;67.56;95385.48;827328;71;32743;-80
2021/10/26 01:16:13;;;;;;;12.18;9.00;;;;;;;6.10;67.00;95376.05;833511;71;32020;-78
2021/10/26 01:31:10;;;;;;;11.08;8.58;;;;;;;6.13;66.71;95363.86;827793;71;29769;-80
2021/10/26 01:46:10;;;;;;;18.48;8.98;;;;;;;6.14;66.88;95353.70;827910;71;29760;-78
2021/10/26 02:01:16;;;;;;;11.43;9.58;;;;;;;6.10;66.92;95345.56;828473;71;32768;-79
2021/10/26 02:16:15;;;;;;;14.90;9.55;;;;;;;6.06;67.51;95334.04;834039;71;32713;-76
2021/10/26 02:31:28;;;;;;;13.15;10.45;;;;;;;6.77;70.56;95332.94;821190;71;32918;-77
2021/10/26 02:46:15;;;;;;;13.05;10.88;;;;;;;6.79;65.40;95325.66;827775;71;31911;-79
2021/10/26 03:16:16;;;;;;;17.40;11.57;;;;;;;6.06;66.22;95317.62;833766;71;33197;-77
2021/10/26 03:31:15;;;;;;;18.62;11.35;;;;;;;5.84;66.85;95317.03;826901;71;32726;-77
2021/10/26 03:46:16;;;;;;;13.90;11.40;;;;;;;5.68;66.97;95304.77;827886;71;31706;-78
2021/10/26 04:01:21;;;;;;;18.70;12.65;;;;;;;5.52;67.86;95311.05;827071;71;32731;-78
2021/10/26 04:16:10;;;;;;;16.10;12.30;;;;;;;5.43;68.00;95309.84;827581;71;31062;-76
2021/10/26 04:31:23;;;;;;;18.73;13.22;;;;;;;5.38;68.25;95305.34;821809;71;32778;-76
2021/10/26 04:46:16;;;;;;;20.90;13.72;;;;;;;5.17;68.69;95317.22;826804;71;32777;-80
2021/10/26 05:01:18;;;;;;;28.00;17.60;;;;;;;5.05;69.06;95312.57;827870;71;32718;-77
2021/10/26 05:16:18;;;;;;;28.12;16.00;;;;;;;4.94;69.89;95323.79;833156;71;32831;-77
2021/10/26 05:31:22;;;;;;;19.30;15.63;;;;;;;5.95;68.58;95321.91;827150;71;32730;-76
2021/10/26 05:46:09;;;;;;;26.15;17.07;;;;;;;8.30;63.98;95318.93;832944;71;31279;-77
2021/10/26 06:01:08;;;;;;;21.05;16.23;;;;;;;10.60;57.28;95327.27;827875;71;29759;-76
2021/10/26 06:16:28;;;;;;;21.90;19.25;;;;;;;11.94;52.87;95341.86;811475;71;32936;-78
2021/10/26 06:31:11;;;;;;;24.25;19.48;;;;;;;12.91;50.15;95340.69;827327;71;31951;-75
2021/10/26 06:46:12;;;;;;;27.13;20.48;;;;;;;13.72;48.49;95339.41;833615;71;31035;-77
2021/10/26 07:01:16;;;;;;;31.42;24.00;;;;;;;14.46;46.56;95340.11;826689;71;32998;-75
2021/10/26 07:16:10;;;;;;;33.60;25.52;;;;;;;14.71;44.27;95333.61;827730;71;30279;-76
2021/10/26 07:31:13;;;;;;;22.27;17.60;;;;;;;15.38;44.09;95327.78;828088;71;32120;-77
2021/10/26 07:46:10;;;;;;;18.73;14.30;;;;;;;16.26;42.12;95314.17;834342;71;29716;-75
2021/10/26 08:01:14;;;;;;;15.18;11.55;;;;;;;15.27;42.33;95306.08;827056;71;32775;-80
2021/10/26 08:16:40;;;;;;;13.30;11.90;;;;;;;13.74;45.30;95295.08;834483;71;32889;-76
2021/10/26 08:31:24;;;;;;;14.03;11.75;;;;;;;13.80;45.67;95285.47;827290;71;32759;-78
2021/10/26 08:46:47;;;;;;;12.95;11.25;;;;;;;14.45;45.66;95289.68;786851;74;33455;-78
2021/10/26 09:31:10;;;;;;;14.65;11.63;;;;;;;15.68;43.06;95258.09;833140;71;29879;-76
2021/10/26 09:46:34;;;;;;;;;;;;;;;;;;;;;
2021/10/26 10:01:14;;;;;;;13.68;10.85;;;;;;;13.07;47.19;95206.38;828214;71;29780;-75
2021/10/26 10:16:23;;;;;;;12.03;10.80;;;;;;;13.14;47.15;95172.56;827406;71;32753;-77
2021/10/26 10:31:32;;;;;;;12.18;10.00;;;;;;;13.06;47.41;95157.92;826564;71;32749;-78
2021/10/26 10:47:00;;;;;;;13.05;10.08;;;;;;;13.29;45.72;95133.88;835917;70;33238;-75
2021/10/26 11:01:37;;;;;;;10.40;8.68;;;;;;;14.42;43.86;95118.88;827623;71;29829;-78
2021/10/26 11:16:13;;;;;;;9.75;8.83;;;;;;;14.61;43.56;95092.90;818271;70;32618;-75
2021/10/26 11:31:16;;;;;;;9.93;8.93;;;;;;;14.51;43.54;95072.73;834238;71;30325;-78
2021/10/26 11:46:19;;;;;;;10.82;9.75;;;;;;;14.62;43.28;95046.94;822780;71;32814;-77
2021/10/26 12:01:35;;;;;;;9.50;8.50;;;;;;;13.81;44.76;95033.81;833114;71;33637;-77
2021/10/26 12:16:16;;;;;;;10.28;8.60;;;;;;;13.46;45.85;95023.40;827718;71;30366;-78
2021/10/26 12:31:15;;;;;;;10.20;9.30;;;;;;;13.68;45.63;95019.31;826904;71;32698;-78
2021/10/26 12:46:19;;;;;;;9.78;7.72;;;;;;;13.22;46.11;94999.31;833827;71;29734;-76
2021/10/26 13:01:32;;;;;;;6.75;6.20;;;;;;;13.16;43.40;94999.16;819750;71;32926;-77
2021/10/26 13:16:12;;;;;;;6.95;6.30;;;;;;;12.89;43.38;94999.87;828718;71;30331;-79
2021/10/26 13:31:13;;;;;;;7.15;6.55;;;;;;;12.84;44.41;94986.80;827671;71;32471;-77
2021/10/26 13:46:09;;;;;;;7.53;6.83;;;;;;;12.52;46.16;94979.14;827073;71;30246;-75
2021/10/26 14:01:19;;;;;;;7.47;6.78;;;;;;;12.46;46.56;94995.31;807958;71;33252;-77
2021/10/26 14:16:11;;;;;;;9.13;8.18;;;;;;;12.35;47.00;95004.67;833035;71;30727;-76
2021/10/26 14:31:09;;;;;;;8.50;7.60;;;;;;;11.99;48.45;95008.33;815232;71;29808;-77
2021/10/26 15:16:09;;;;;;;8.95;7.70;;;;;;;10.58;50.43;94996.62;828151;71;29761;-77
2021/10/26 15:46:15;;;;;;;9.45;8.35;;;;;;;;;;827347;71;33260;-76
2021/10/26 16:01:17;;;;;;;9.10;7.80;;;;;;;;;;826605;71;33271;-78
2021/10/26 16:16:23;;;;;;;8.93;6.75;;;;;;;9.01;47.52;95016.20;833750;71;32719;-75
2021/10/26 16:31:30;;;;;;;6.90;6.20;;;;;;;8.95;47.14;95032.95;818457;71;33386;-79
2021/10/26 16:46:45;;;;;;;6.72;5.78;;;;;;;8.86;49.62;95036.63;821003;71;30401;-78
2021/10/26 17:01:35;;;;;;;;;;;;;;;;;;;;;
2021/10/26 17:16:17;;;;;;;6.30;5.47;;;;;;;8.71;58.12;95053.10;823684;71;32657;-78
2021/10/26 17:46:11;;;;;;;9.08;6.28;;;;;;;8.45;60.97;95065.37;828385;71;29363;-76
2021/10/26 18:01:25;;;;;;;5.83;5.22;;;;;;;8.40;61.80;95078.42;827981;71;29701;-79
2021/10/26 18:16:41;;;;;;;10.60;8.90;;;;;;;8.16;63.08;95076.80;787200;75;33154;-78
2021/10/26 18:31:40;;;;;;;14.68;9.25;;;;;;;7.98;63.91;95084.05;822271;71;31808;-79
2021/10/26 18:46:14;;;;;;;16.40;11.10;;;;;;;7.56;65.59;95097.98;834242;71;29264;-78
2021/10/26 19:01:33;;;;;;;11.38;9.35;;;;;;;7.20;67.27;95117.33;819584;71;31988;-79
2021/10/26 19:16:21;;;;;;;20.65;13.25;;;;;;;7.37;66.77;95127.62;818984;71;31770;-79
2021/10/26 19:31:16;;;;;;;22.77;16.95;;;;;;;7.60;64.80;95135.61;826507;71;31885;-75
2021/10/26 19:46:16;;;;;;;17.05;12.60;;;;;;;7.73;65.84;95157.88;828009;71;31914;-77
2021/10/26 20:01:11;;;;;;;15.53;11.85;;;;;;;7.74;66.48;95180.33;819618;71;29193;-78
2021/10/26 20:16:33;;;;;;;15.53;12.18;;;;;;;7.68;65.08;95176.64;820404;71;31078;-77
2021/10/26 20:31:17;;;;;;;14.07;10.95;;;;;;;7.64;65.24;95172.44;819829;71;28746;-78
2021/10/26 20:32:37;;;;;;;18.80;11.35;;;;;;;7.59;65.33;95175.80;789358;74;25334;-77
2021/10/26 20:33:42;;;;;;;16.80;12.23;;;;;;;7.63;65.56;95179.48;798437;73;25329;-79
2021/10/26 20:35:04;;;;;;;12.82;11.08;;;;;;;7.72;65.50;95176.41;806598;73;25357;-77
2021/10/26 20:36:10;;;;;;;15.35;10.88;;;;;;;7.83;65.41;95174.13;805020;73;25983;-76
2021/10/26 20:37:16;;;;;;;12.85;11.43;;;;;;;7.94;65.34;95174.44;790897;74;25197;-78
2021/10/26 20:38:22;;;;;;;20.00;14.65;;;;;;;8.05;65.17;95177.09;798098;73;25249;-77
2021/10/26 20:39:27;;;;;;;16.93;13.75;;;;;;;8.13;65.00;95168.27;798646;73;25381;-78
2021/10/26 20:40:30;;;;;;;21.20;15.65;;;;;;;8.22;64.84;95169.34;799587;73;25230;-77
2021/10/26 20:41:38;;;;;;;21.35;15.35;;;;;;;8.30;64.54;95171.98;801865;73;25324;-78
2021/10/26 20:42:44;;;;;;;18.80;14.25;;;;;;;8.37;64.33;95173.86;798869;72;25254;-78
2021/10/26 20:43:54;;;;;;;21.60;14.05;;;;;;;8.44;64.05;95171.56;800881;72;25240;-79
2021/10/26 20:45:00;;;;;;;16.48;12.73;;;;;;;8.49;63.78;95168.41;802456;73;25205;-77
2021/10/26 20:46:06;;;;;;;18.67;13.85;;;;;;;8.53;63.59;95169.47;799643;73;25740;-78
2021/10/26 20:47:27;;;;;;;17.37;12.25;;;;;;;8.59;63.51;95171.59;800334;73;26064;-79
2021/10/26 20:48:43;;;;;;;16.32;12.60;;;;;;;8.61;63.29;95166.35;807687;73;25242;-79
2021/10/26 20:49:56;;;;;;;14.60;12.20;;;;;;;8.69;63.06;95171.61;794098;73;25251;-79
2021/10/26 20:51:16;;;;;;;20.05;13.78;;;;;;;8.70;62.94;95166.66;793173;74;25269;-80
2021/10/26 20:52:56;;;;;;;16.77;12.05;;;;;;;8.72;62.85;95168.98;783191;74;25621;-76
2021/10/26 20:54:23;;;;;;;14.93;11.85;;;;;;;8.73;62.70;95160.89;796375;73;25271;-79
2021/10/26 20:55:44;;;;;;;18.85;13.35;;;;;;;8.76;62.64;95163.53;807948;73;25304;-78
2021/10/26 20:57:20;;;;;;;19.05;14.13;;;;;;;8.11;62.40;95063.20;804436;73;25323;-79
2021/10/26 20:58:40;;;;;;;22.35;15.50;;;;;;;8.11;62.40;95063.20;805462;73;25581;-77
2021/10/26 20:59:44;;;;;;;21.68;16.40;;;;;;;;;;805447;73;25295;-79
2021/10/26 21:00:48;;;;;;;25.45;18.15;;;;;;;;;;805468;73;25365;-77
2021/10/26 21:16:21;;;;;;;21.85;16.15;;;;;;;7.89;63.68;95144.38;832677;71;32315;-77
2021/10/26 21:31:12;;;;;;;21.07;14.78;;;;;;;7.43;64.67;95138.88;827671;71;30385;-78
2021/10/26 21:46:14;;;;;;;22.50;15.83;;;;;;;7.12;65.38;95147.80;826383;71;31769;-80
2021/10/26 22:01:22;;;;;;;32.10;22.35;;;;;;;6.91;66.36;95140.31;784919;74;32067;-77
2021/10/26 22:16:09;;;;;;;26.82;18.00;;;;;;;6.78;67.40;95148.55;833155;71;28928;-77
2021/10/26 22:31:16;;;;;;;23.32;16.60;;;;;;;6.66;67.66;95140.88;827525;71;30988;-79
2021/10/26 22:46:10;;;;;;;20.60;14.07;;;;;;;6.59;67.75;95144.21;826275;71;28682;-77
2021/10/26 23:01:13;;;;;;;22.62;16.37;;;;;;;6.45;68.14;95144.30;817145;71;32101;-79
2021/10/26 23:16:13;;;;;;;19.40;14.58;;;;;;;6.33;68.51;95149.15;827888;71;30083;-77
2021/10/26 23:31:15;;;;;;;16.90;12.90;;;;;;;6.25;68.74;95149.58;818460;71;32858;-78
2021/10/26 23:46:11;;;;;;;20.23;13.65;;;;;;;6.14;69.10;95155.20;827897;71;29308;-76
